Time;durP1;ratioP1;P1;durP2;ratioP2;P2;SDS_P1;SDS_P2;PMS_P1;PMS_P2;Temp;Humidity;BMP_temperature;BMP_pressure;BME280_temperature;BME280_humidity;BME280_pressure;Samples;Min_cycle;Max_cycle;Signal;HPM_P1;HPM_P2
2022/08/06 00:02:28;;;;;;;1.13;1.00;;;25.80;83.60;;;;;;5060712;28;20447;-75
2022/08/06 00:05:00;;;;;;;1.97;0.97;;;25.80;80.60;;;;;;5090819;28;20449;-75
2022/08/06 00:07:28;;;;;;;1.00;1.00;;;25.80;80.40;;;;;;5060430;28;21121;-75
2022/08/06 00:10:15;;;;;;;2.40;1.00;;;25.80;80.10;;;;;;5059661;28;20490;-76
2022/08/06 00:12:44;;;;;;;1.53;1.00;;;25.70;80.50;;;;;;5062167;28;20481;-78
2022/08/06 00:15:17;;;;;;;1.23;0.90;;;25.70;77.70;;;;;;5060152;28;21166;-75
2022/08/06 00:18:07;;;;;;;1.17;1.10;;;25.70;78.20;;;;;;5062176;28;20446;-78
2022/08/06 00:20:39;;;;;;;1.87;1.20;;;25.80;79.10;;;;;;5059554;28;20569;-76
2022/08/06 00:23:09;;;;;;;1.40;1.03;;;25.70;79.80;;;;;;5058765;28;20811;-75
2022/08/06 00:25:44;;;;;;;2.20;0.97;;;25.70;76.10;;;;;;5059884;28;20461;-77
2022/08/06 00:28:20;;;;;;;2.10;1.30;;;25.70;75.20;;;;;;5058601;28;21182;-75
2022/08/06 00:30:57;;;;;;;2.30;1.73;;;25.60;75.00;;;;;;5056883;28;20492;-75
2022/08/06 00:33:29;;;;;;;2.70;1.10;;;25.60;77.10;;;;;;5059130;28;20442;-75
2022/08/06 00:36:17;;;;;;;1.77;1.40;;;25.60;75.90;;;;;;5063300;28;21039;-75
2022/08/06 00:38:52;;;;;;;1.27;1.17;;;25.60;76.20;;;;;;5064871;28;20458;-75
2022/08/06 00:41:20;;;;;;;1.57;0.90;;;25.60;74.80;;;;;;5065388;28;20832;-76
2022/08/06 00:43:50;;;;;;;1.90;0.90;;;25.50;75.90;;;;;;5065767;28;20486;-75
2022/08/06 00:46:19;;;;;;;3.90;1.13;;;25.60;77.60;;;;;;5063870;28;20566;-77
2022/08/06 00:48:48;;;;;;;1.00;1.00;;;25.50;73.10;;;;;;5060418;28;21208;-74
2022/08/06 00:51:21;;;;;;;0.83;0.83;;;25.50;72.90;;;;;;5063269;28;20482;-76
2022/08/06 00:53:50;;;;;;;1.10;1.00;;;25.50;72.80;;;;;;5065044;28;20462;-75
2022/08/06 00:56:25;;;;;;;1.27;0.97;;;25.50;71.70;;;;;;5065280;28;20458;-75
2022/08/06 00:58:56;;;;;;;1.57;1.00;;;25.40;71.70;;;;;;5064351;28;20457;-75
2022/08/06 01:01:31;;;;;;;1.07;0.93;;;25.40;71.20;;;;;;5059759;28;20481;-75
2022/08/06 01:04:18;;;;;;;1.17;1.03;;;25.40;72.10;;;;;;5058562;28;20543;-75
2022/08/06 01:06:47;;;;;;;1.43;1.10;;;25.40;70.90;;;;;;5064106;28;20464;-77
2022/08/06 01:09:25;;;;;;;0.90;0.80;;;25.40;74.80;;;;;;5065529;28;20481;-75
2022/08/06 01:11:53;;;;;;;0.90;0.90;;;25.40;71.50;;;;;;5064050;28;20474;-75
2022/08/06 01:14:27;;;;;;;2.50;0.90;;;25.40;91.50;;;;;;5065054;28;20923;-77
2022/08/06 01:17:13;;;;;;;1.20;1.00;;;25.30;70.70;;;;;;5062972;28;20997;-75
2022/08/06 01:20:00;;;;;;;0.90;0.90;;;25.40;69.70;;;;;;5054116;28;20478;-77
2022/08/06 01:23:16;;;;;;;4.20;2.83;;;25.30;69.50;;;;;;5062573;28;20504;-75
2022/08/06 01:26:08;;;;;;;1.30;1.20;;;25.40;68.90;;;;;;5045784;28;20474;-76
2022/08/06 01:28:43;;;;;;;1.37;0.90;;;25.30;69.50;;;;;;5097154;28;20538;-75
2022/08/06 01:31:19;;;;;;;1.70;0.80;;;25.30;71.00;;;;;;5066055;28;20470;-74
2022/08/06 01:33:51;;;;;;;2.67;1.23;;;25.30;69.20;;;;;;5066697;28;20533;-75
2022/08/06 01:36:28;;;;;;;1.17;1.07;;;25.30;70.70;;;;;;5062058;28;20489;-76
2022/08/06 01:39:00;;;;;;;1.77;0.83;;;25.20;68.30;;;;;;5065833;28;20940;-76
2022/08/06 01:41:46;;;;;;;1.13;1.03;;;25.30;69.70;;;;;;5060457;28;20474;-75
2022/08/06 01:44:35;;;;;;;0.97;0.80;;;25.20;69.30;;;;;;5062372;28;20986;-75
2022/08/06 01:47:08;;;;;;;1.10;1.00;;;25.20;67.60;;;;;;5066747;28;20462;-75
2022/08/06 01:49:47;;;;;;;0.97;0.90;;;25.20;70.30;;;;;;5066763;28;20486;-75
2022/08/06 01:52:34;;;;;;;1.10;0.90;;;25.20;69.50;;;;;;5061179;28;20458;-76
2022/08/06 01:55:10;;;;;;;0.80;0.80;;;25.20;69.10;;;;;;5059727;28;20449;-74
2022/08/06 01:57:44;;;;;;;1.23;0.90;;;25.20;67.60;;;;;;5062402;28;20846;-76
2022/08/06 02:00:37;;;;;;;0.80;0.80;;;25.20;68.50;;;;;;5061470;28;20551;-74
2022/08/06 02:03:10;;;;;;;1.00;1.00;;;25.10;65.90;;;;;;5059859;28;20975;-76
2022/08/06 02:05:46;;;;;;;2.23;1.10;;;25.10;66.90;;;;;;5062934;28;21264;-76
2022/08/06 02:08:24;;;;;;;2.70;1.33;;;25.10;64.60;;;;;;5062653;28;20486;-75
2022/08/06 02:11:09;;;;;;;1.43;1.07;;;25.10;65.20;;;;;;5063564;28;20486;-75
2022/08/06 02:13:58;;;;;;;2.90;1.00;;;25.10;64.00;;;;;;5063107;28;20516;-74
2022/08/06 02:16:31;;;;;;;1.40;0.90;;;25.00;65.00;;;;;;5062095;28;20509;-75
2022/08/06 02:19:01;;;;;;;0.90;0.90;;;25.00;66.20;;;;;;5061935;28;23481;-75
2022/08/06 02:21:39;;;;;;;1.07;0.87;;;25.00;63.50;;;;;;5062665;28;20457;-74
2022/08/06 02:24:09;;;;;;;1.10;0.90;;;25.00;63.80;;;;;;5062973;28;21725;-75
2022/08/06 02:26:39;;;;;;;1.00;0.90;;;25.00;62.70;;;;;;5063184;28;20459;-76
2022/08/06 02:29:11;;;;;;;1.93;1.00;;;24.90;63.40;;;;;;5064897;28;20540;-76
2022/08/06 02:31:42;;;;;;;0.87;0.87;;;24.90;63.00;;;;;;5064788;28;20473;-77
2022/08/06 02:34:20;;;;;;;1.70;0.80;;;24.90;62.90;;;;;;5062737;28;20458;-76
2022/08/06 02:37:07;;;;;;;1.23;0.80;;;24.90;63.70;;;;;;5060013;28;20541;-74
2022/08/06 02:39:42;;;;;;;0.90;0.90;;;24.80;63.20;;;;;;5062740;28;20493;-75
2022/08/06 02:42:23;;;;;;;2.40;0.90;;;24.90;63.00;;;;;;5060734;28;20454;-75
2022/08/06 02:45:01;;;;;;;1.43;1.00;;;24.80;61.10;;;;;;5076170;28;20462;-74
2022/08/06 02:47:37;;;;;;;1.13;1.03;;;24.80;63.40;;;;;;5066086;28;20438;-77
2022/08/06 02:50:30;;;;;;;1.10;1.00;;;24.80;62.10;;;;;;5064261;28;20577;-75
2022/08/06 02:53:08;;;;;;;2.40;1.00;;;24.80;61.30;;;;;;5056858;28;20504;-76
2022/08/06 02:55:55;;;;;;;2.20;1.10;;;24.80;62.90;;;;;;5060722;28;20451;-75
2022/08/06 02:58:32;;;;;;;1.57;0.90;;;24.80;62.20;;;;;;5061368;28;20802;-77
2022/08/06 03:01:09;;;;;;;3.10;1.10;;;24.70;61.30;;;;;;5060421;28;21047;-74
2022/08/06 03:03:41;;;;;;;1.20;1.10;;;24.80;62.70;;;;;;5061373;28;20478;-76
2022/08/06 03:06:27;;;;;;;2.40;1.17;;;24.20;61.20;;;;;;5062047;28;20473;-74
2022/08/06 03:08:59;;;;;;;1.10;1.00;;;24.70;61.70;;;;;;5061037;28;20451;-75
2022/08/06 03:11:31;;;;;;;1.97;1.10;;;24.70;62.20;;;;;;5060287;28;20482;-75
2022/08/06 03:14:02;;;;;;;1.30;0.93;;;24.70;63.90;;;;;;5063372;28;20451;-75
2022/08/06 03:16:42;;;;;;;1.57;1.00;;;24.70;60.60;;;;;;5061773;28;20470;-74
2022/08/06 03:19:20;;;;;;;2.73;1.13;;;24.60;61.90;;;;;;5060290;28;20458;-74
2022/08/06 03:22:10;;;;;;;1.10;1.00;;;24.60;60.70;;;;;;5061938;28;20632;-77
2022/08/06 03:24:59;;;;;;;1.47;1.20;;;24.60;60.90;;;;;;5062033;28;20450;-75
2022/08/06 03:27:31;;;;;;;2.73;1.10;;;24.50;61.20;;;;;;5060143;28;20450;-75
2022/08/06 03:30:13;;;;;;;1.20;1.10;;;24.60;61.10;;;;;;5060109;28;20637;-74
2022/08/06 03:33:02;;;;;;;1.00;1.00;;;24.50;60.10;;;;;;5060646;28;20447;-75
2022/08/06 03:35:54;;;;;;;1.33;1.23;;;24.50;61.40;;;;;;5057611;28;20454;-74
2022/08/06 03:38:23;;;;;;;3.17;1.20;;;24.50;61.50;;;;;;5054775;28;20525;-75
2022/08/06 03:40:57;;;;;;;1.75;1.20;;;24.40;59.70;;;;;;5057366;28;20454;-75
2022/08/06 03:43:25;;;;;;;0.90;0.90;;;24.40;60.90;;;;;;5054879;28;20208;-75
2022/08/06 03:46:01;;;;;;;1.73;1.03;;;24.40;65.00;;;;;;5057992;28;20484;-75
2022/08/06 03:48:34;;;;;;;1.30;1.20;;;24.40;61.70;;;;;;5059029;28;20465;-77
2022/08/06 03:51:11;;;;;;;1.20;1.10;;;24.40;61.00;;;;;;5059221;28;20479;-74
2022/08/06 03:53:41;;;;;;;1.10;1.00;;;24.40;61.60;;;;;;5056676;28;20469;-76
2022/08/06 03:56:21;;;;;;;2.00;1.07;;;24.30;61.50;;;;;;5057433;28;20462;-76
2022/08/06 03:59:03;;;;;;;1.57;1.47;;;24.30;61.50;;;;;;5058014;28;20500;-75
2022/08/06 04:01:34;;;;;;;1.47;1.20;;;24.30;61.40;;;;;;5054365;28;21348;-75
2022/08/06 04:04:11;;;;;;;1.20;1.03;;;24.30;60.30;;;;;;5060219;28;20561;-73
2022/08/06 04:06:57;;;;;;;2.23;0.90;;;24.30;64.00;;;;;;5058248;28;20442;-74
2022/08/06 04:09:26;;;;;;;1.20;1.10;;;24.30;61.10;;;;;;5059144;28;20443;-76
2022/08/06 04:12:15;;;;;;;1.40;1.10;;;24.30;61.60;;;;;;5060115;28;20491;-75
2022/08/06 04:15:04;;;;;;;1.13;1.00;;;24.20;61.60;;;;;;5059183;28;20451;-73
2022/08/06 04:17:38;;;;;;;1.80;1.10;;;24.20;62.30;;;;;;5058951;28;20451;-75
2022/08/06 04:20:12;;;;;;;3.17;1.10;;;24.30;78.40;;;;;;5060435;28;21279;-74
2022/08/06 04:22:41;;;;;;;1.20;1.10;;;24.20;60.80;;;;;;5059443;28;20470;-75
2022/08/06 04:25:35;;;;;;;1.40;1.07;;;24.20;63.10;;;;;;5058957;28;20542;-76
2022/08/06 04:28:06;;;;;;;1.70;1.10;;;24.20;60.40;;;;;;5054913;28;20454;-75
2022/08/06 04:30:38;;;;;;;1.77;1.00;;;24.20;60.60;;;;;;5057602;28;20479;-75
2022/08/06 04:33:18;;;;;;;1.87;1.00;;;23.60;60.50;;;;;;5060508;28;20986;-76
2022/08/06 04:35:47;;;;;;;1.30;1.00;;;24.10;61.70;;;;;;5055810;28;20533;-74
2022/08/06 04:38:38;;;;;;;1.43;1.07;;;24.10;60.80;;;;;;5056485;28;20515;-77
2022/08/06 04:41:08;;;;;;;1.60;1.10;;;24.10;61.10;;;;;;5056408;28;20942;-74
2022/08/06 04:43:43;;;;;;;1.30;1.07;;;24.10;62.40;;;;;;5059230;28;20267;-77
2022/08/06 04:46:21;;;;;;;1.53;1.20;;;24.20;63.40;;;;;;5058055;28;20461;-74
2022/08/06 04:48:49;;;;;;;1.10;1.00;;;24.10;64.00;;;;;;5060958;28;20485;-74
2022/08/06 04:51:24;;;;;;;1.40;1.30;;;24.10;63.60;;;;;;5059462;28;20486;-74
2022/08/06 04:54:14;;;;;;;1.20;1.10;;;24.10;64.10;;;;;;5058705;28;20475;-74
2022/08/06 04:56:43;;;;;;;0.90;0.90;;;24.10;62.10;;;;;;5058981;28;20449;-74
2022/08/06 04:59:17;;;;;;;1.33;1.30;;;24.10;62.00;;;;;;5057402;28;20452;-74
2022/08/06 05:01:47;;;;;;;1.37;0.97;;;24.00;61.40;;;;;;5057794;28;20965;-74
2022/08/06 05:04:29;;;;;;;1.03;0.93;;;24.10;62.60;;;;;;5057658;28;20470;-74
2022/08/06 05:07:11;;;;;;;1.83;1.10;;;24.00;60.10;;;;;;5058408;28;20831;-75
2022/08/06 05:09:42;;;;;;;1.53;1.07;;;24.00;62.30;;;;;;5059705;28;20508;-74
2022/08/06 05:12:26;;;;;;;1.77;1.10;;;24.00;62.60;;;;;;5059333;28;20475;-75
2022/08/06 05:15:00;;;;;;;1.10;1.10;;;24.00;62.70;;;;;;5058350;28;20596;-76
2022/08/06 05:17:34;;;;;;;2.47;1.30;;;24.00;63.90;;;;;;5058825;28;21017;-74
2022/08/06 05:20:10;;;;;;;1.43;1.10;;;24.00;63.70;;;;;;5052954;28;20485;-74
2022/08/06 05:23:00;;;;;;;1.40;1.20;;;24.10;63.20;;;;;;5063847;28;20457;-74
2022/08/06 05:25:33;;;;;;;2.43;0.97;;;24.10;65.80;;;;;;5062640;28;20465;-74
2022/08/06 05:28:05;;;;;;;2.03;1.17;;;24.10;66.50;;;;;;5062308;28;20462;-74
2022/08/06 05:30:44;;;;;;;1.30;1.20;;;24.20;69.90;;;;;;5061117;28;20465;-75
2022/08/06 05:33:13;;;;;;;1.23;1.13;;;24.10;66.40;;;;;;5063486;28;20453;-75
2022/08/06 05:35:44;;;;;;;1.60;1.27;;;24.20;66.90;;;;;;5064075;28;20446;-74
2022/08/06 05:38:30;;;;;;;1.10;1.00;;;24.20;87.00;;;;;;5065073;28;20978;-75
2022/08/06 05:41:06;;;;;;;1.97;1.20;;;24.20;68.50;;;;;;5062528;28;20486;-76
2022/08/06 05:43:35;;;;;;;1.30;1.20;;;24.20;67.20;;;;;;5064072;28;21030;-74
2022/08/06 05:46:25;;;;;;;2.73;1.20;;;24.20;68.00;;;;;;5062293;28;21006;-74
2022/08/06 05:49:02;;;;;;;0.90;0.90;;;24.20;66.50;;;;;;5062528;28;20446;-75
2022/08/06 05:51:57;;;;;;;1.10;1.10;;;24.20;71.20;;;;;;5063942;28;20503;-75
2022/08/06 05:54:31;;;;;;;1.57;1.00;;;24.10;68.10;;;;;;5061219;28;21821;-75
2022/08/06 05:57:05;;;;;;;0.90;0.90;;;24.10;67.50;;;;;;5062848;28;20473;-74
2022/08/06 05:59:38;;;;;;;1.40;1.27;;;24.10;67.90;;;;;;5063374;28;20544;-74
2022/08/06 06:02:27;;;;;;;1.10;1.00;;;24.20;68.80;;;;;;5063385;28;20451;-74
2022/08/06 06:04:59;;;;;;;1.40;1.17;;;24.20;67.60;;;;;;5057328;28;20441;-73
2022/08/06 06:07:48;;;;;;;1.07;1.07;;;24.20;68.50;;;;;;5067468;28;20465;-72
2022/08/06 06:10:38;;;;;;;2.20;1.10;;;24.10;67.60;;;;;;5080093;28;20478;-74
2022/08/06 06:13:13;;;;;;;2.03;1.00;;;24.20;68.90;;;;;;5060516;28;20470;-75
2022/08/06 06:16:10;;;;;;;1.00;1.00;;;24.10;69.90;;;;;;5058191;28;20467;-73
2022/08/06 06:18:59;;;;;;;1.67;1.47;;;24.20;70.60;;;;;;5063646;28;20459;-76
2022/08/06 06:21:48;;;;;;;1.90;1.00;;;24.30;72.60;;;;;;5063067;28;20461;-74
2022/08/06 06:24:23;;;;;;;1.00;1.00;;;24.40;72.80;;;;;;5061549;28;20474;-75
2022/08/06 06:26:57;;;;;;;1.20;1.10;;;24.40;74.30;;;;;;5062251;28;20512;-77
2022/08/06 06:29:39;;;;;;;2.77;1.50;;;24.40;74.90;;;;;;5061567;28;20451;-74
2022/08/06 06:32:43;;;;;;;1.47;1.10;;;24.50;73.80;;;;;;5063452;28;20466;-76
2022/08/06 06:35:33;;;;;;;1.67;1.20;;;24.50;72.10;;;;;;5060721;28;20459;-75
2022/08/06 06:38:15;;;;;;;1.27;1.17;;;24.50;73.30;;;;;;5062149;28;20456;-75
2022/08/06 06:40:52;;;;;;;1.40;0.90;;;24.60;72.40;;;;;;5064191;28;20543;-77
2022/08/06 06:43:46;;;;;;;0.90;0.90;;;24.60;73.90;;;;;;5062126;28;20505;-75
2022/08/06 06:46:23;;;;;;;1.40;1.10;;;24.70;76.20;;;;;;5058471;28;20438;-76
2022/08/06 06:49:15;;;;;;;2.20;1.17;;;24.80;76.00;;;;;;5058959;28;20486;-74
2022/08/06 06:52:10;;;;;;;0.90;0.90;;;24.90;77.80;;;;;;5058632;28;21139;-75
2022/08/06 06:54:43;;;;;;;1.23;1.10;;;25.10;82.00;;;;;;5058199;28;20537;-76
2022/08/06 06:57:20;;;;;;;1.07;0.90;;;25.20;80.70;;;;;;5064767;28;20458;-75
2022/08/06 06:59:53;;;;;;;1.90;1.00;;;25.30;80.80;;;;;;5060642;28;20490;-74
2022/08/06 07:02:45;;;;;;;1.07;1.07;;;25.30;80.40;;;;;;5065654;28;20896;-74
2022/08/06 07:05:17;;;;;;;2.00;1.20;;;25.40;81.90;;;;;;5063510;28;20473;-75
2022/08/06 07:08:06;;;;;;;1.20;1.10;;;25.40;79.80;;;;;;5063615;28;21190;-75
2022/08/06 07:10:35;;;;;;;1.43;1.00;;;25.30;81.70;;;;;;5065788;28;20565;-74
2022/08/06 07:13:05;;;;;;;1.53;1.33;;;25.30;78.50;;;;;;5063540;28;20894;-75
2022/08/06 07:15:43;;;;;;;2.70;1.23;;;25.20;78.50;;;;;;5061530;28;20469;-76
2022/08/06 07:18:24;;;;;;;2.27;1.10;;;25.20;78.60;;;;;;5063167;28;20465;-75
2022/08/06 07:21:03;;;;;;;1.40;1.10;;;25.20;79.50;;;;;;5059916;28;20473;-76
2022/08/06 07:23:32;;;;;;;3.00;1.40;;;25.20;79.50;;;;;;5059575;28;20553;-77
2022/08/06 07:26:23;;;;;;;1.40;1.30;;;25.30;83.00;;;;;;5061136;28;20451;-75
2022/08/06 07:28:52;;;;;;;1.60;1.50;;;25.30;80.50;;;;;;5060002;28;20454;-77
2022/08/06 07:31:31;;;;;;;2.20;1.30;;;25.40;80.40;;;;;;5059427;28;20581;-75
2022/08/06 07:34:06;;;;;;;1.43;1.23;;;25.50;80.60;;;;;;5061096;28;20504;-75
2022/08/06 07:36:41;;;;;;;2.00;1.20;;;25.50;81.30;;;;;;5061409;28;20451;-73
2022/08/06 07:39:27;;;;;;;1.30;1.20;;;25.60;82.30;;;;;;5058324;28;20465;-79
2022/08/06 07:42:01;;;;;;;1.80;1.00;;;25.60;81.90;;;;;;5056087;28;20450;-75
2022/08/06 07:44:48;;;;;;;1.77;1.50;;;25.70;83.20;;;;;;5053492;28;20631;-74
2022/08/06 07:47:28;;;;;;;1.60;1.20;;;25.70;83.00;;;;;;5082645;28;20539;-75
2022/08/06 07:50:16;;;;;;;2.10;1.10;;;25.70;82.20;;;;;;5055423;28;20482;-74
2022/08/06 07:52:52;;;;;;;1.50;1.30;;;25.70;82.50;;;;;;5058915;28;20482;-78
2022/08/06 07:55:24;;;;;;;2.27;1.40;;;25.70;80.40;;;;;;5057406;28;20446;-76
2022/08/06 07:57:59;;;;;;;2.50;1.73;;;25.70;82.60;;;;;;5055372;28;20447;-75
2022/08/06 08:00:32;;;;;;;3.13;1.40;;;25.80;83.60;;;;;;5055341;28;20512;-74
2022/08/06 08:06:22;;;;;;;4.90;1.70;;;25.80;82.80;;;;;;5057381;28;21024;-76
2022/08/06 08:08:54;;;;;;;5.97;1.67;;;25.80;84.00;;;;;;5057675;28;20552;-76
2022/08/06 08:11:25;;;;;;;2.60;1.10;;;25.80;84.80;;;;;;5055619;28;20972;-77
2022/08/06 08:14:17;;;;;;;4.23;1.50;;;25.90;87.10;;;;;;5057839;28;20577;-75
2022/08/06 08:16:46;;;;;;;1.20;1.10;;;26.00;86.80;;;;;;5054280;28;20462;-75
2022/08/06 08:19:24;;;;;;;1.30;1.20;;;26.10;85.60;;;;;;5056431;28;20954;-75
2022/08/06 08:21:56;;;;;;;2.50;1.40;;;26.10;86.60;;;;;;5056756;28;20458;-74
2022/08/06 08:24:25;;;;;;;1.50;1.23;;;26.10;87.20;;;;;;5057161;28;20447;-76
2022/08/06 08:26:54;;;;;;;7.53;1.57;;;26.10;81.80;;;;;;5058604;28;20473;-75
2022/08/06 08:29:41;;;;;;;2.07;1.30;;;26.20;83.90;;;;;;5060884;28;20520;-76
2022/08/06 08:32:22;;;;;;;1.43;1.07;;;26.20;84.00;;;;;;5057380;28;20450;-75
2022/08/06 08:34:50;;;;;;;3.37;1.10;;;26.20;83.50;;;;;;5060917;28;21347;-76
2022/08/06 08:37:25;;;;;;;3.27;1.30;;;26.20;89.60;;;;;;5065249;28;20520;-77
2022/08/06 08:39:53;;;;;;;1.80;1.20;;;26.30;82.30;;;;;;5064378;28;21313;-77
2022/08/06 08:42:32;;;;;;;1.43;1.20;;;26.30;82.30;;;;;;5064396;28;20462;-75
2022/08/06 08:45:04;;;;;;;1.00;1.00;;;26.20;82.30;;;;;;5060865;28;20498;-76
2022/08/06 08:47:44;;;;;;;3.13;1.37;;;26.30;85.00;;;;;;5061811;28;20457;-75
2022/08/06 08:50:22;;;;;;;1.60;1.10;;;26.40;82.50;;;;;;5061896;28;20917;-76
2022/08/06 08:52:57;;;;;;;3.40;1.30;;;26.40;82.00;;;;;;5061448;28;20540;-77
2022/08/06 08:55:26;;;;;;;1.87;1.10;;;26.40;81.80;;;;;;5055902;28;20509;-77
2022/08/06 08:58:15;;;;;;;2.70;1.30;;;26.40;82.10;;;;;;5068195;28;21007;-77
2022/08/06 09:01:08;;;;;;;1.13;1.10;;;26.40;85.40;;;;;;5062886;28;20486;-77
2022/08/06 09:03:57;;;;;;;2.30;1.00;;;26.40;80.50;;;;;;5064888;28;20443;-76
2022/08/06 09:06:26;;;;;;;1.23;1.13;;;26.40;82.10;;;;;;5061454;28;20508;-76
2022/08/06 09:09:03;;;;;;;2.13;1.30;;;26.30;83.90;;;;;;5064639;28;20557;-76
2022/08/06 09:11:32;;;;;;;1.33;1.23;;;26.30;81.80;;;;;;5060303;28;20480;-77
2022/08/06 09:14:21;;;;;;;1.67;1.47;;;26.30;83.20;;;;;;5060132;28;20533;-77
2022/08/06 09:17:01;;;;;;;1.50;1.00;;;26.30;80.80;;;;;;5059099;28;20471;-77
2022/08/06 09:19:31;;;;;;;1.43;1.33;;;26.20;79.20;;;;;;5063404;28;20957;-78
2022/08/06 09:22:06;;;;;;;1.37;1.10;;;26.20;80.90;;;;;;5063385;28;20478;-77
2022/08/06 09:24:38;;;;;;;1.30;1.20;;;26.20;78.70;;;;;;5060584;28;20442;-77
2022/08/06 09:27:09;;;;;;;0.90;0.90;;;26.10;74.30;;;;;;5052477;28;20449;-77
2022/08/06 09:29:59;;;;;;;1.20;1.10;;;26.10;73.60;;;;;;5060343;28;20474;-78
2022/08/06 09:32:43;;;;;;;1.33;1.20;;;26.00;72.90;;;;;;5061064;28;21000;-77
2022/08/06 09:35:25;;;;;;;1.23;1.17;;;26.00;75.90;;;;;;5059980;28;20568;-78
2022/08/06 09:38:15;;;;;;;1.47;1.10;;;26.00;73.80;;;;;;5055972;28;20859;-78
2022/08/06 09:41:08;;;;;;;1.83;1.73;;;26.00;75.50;;;;;;5060416;28;20508;-76
2022/08/06 09:43:43;;;;;;;1.30;1.20;;;26.00;75.60;;;;;;5057698;28;20485;-76
2022/08/06 09:46:40;;;;;;;1.20;1.10;;;26.00;92.80;;;;;;5060272;28;20447;-75
2022/08/06 09:49:10;;;;;;;1.50;1.40;;;26.10;75.80;;;;;;5059699;28;20451;-79
2022/08/06 09:52:15;;;;;;;1.10;1.00;;;26.10;75.40;;;;;;5062289;28;20841;-78
2022/08/06 09:54:45;;;;;;;1.20;1.10;;;26.20;78.10;;;;;;5057802;28;20466;-77
2022/08/06 09:57:24;;;;;;;1.30;1.20;;;26.20;80.00;;;;;;5057489;28;21239;-77
2022/08/06 10:00:05;;;;;;;1.20;1.10;;;26.30;78.20;;;;;;5063264;28;20474;-75
2022/08/06 10:02:42;;;;;;;1.77;1.07;;;26.20;77.30;;;;;;5064750;28;20875;-76
2022/08/06 10:05:20;;;;;;;1.40;1.30;;;26.20;76.40;;;;;;5065333;28;20450;-76
2022/08/06 10:08:05;;;;;;;1.77;1.20;;;26.20;75.10;;;;;;5064809;28;20446;-77
2022/08/06 10:10:44;;;;;;;1.30;1.23;;;26.20;76.80;;;;;;5061017;28;21106;-78
2022/08/06 10:13:20;;;;;;;1.23;1.13;;;26.20;77.20;;;;;;5058782;28;20458;-78
2022/08/06 10:15:51;;;;;;;1.37;1.27;;;26.20;77.60;;;;;;5059110;28;20449;-76
2022/08/06 10:18:37;;;;;;;1.03;1.03;;;26.30;76.20;;;;;;5062608;28;20500;-77
2022/08/06 10:21:27;;;;;;;1.17;1.13;;;26.30;75.50;;;;;;5065401;28;20486;-77
2022/08/06 10:24:11;;;;;;;1.10;1.10;;;26.30;75.20;;;;;;5064758;28;20450;-78
2022/08/06 10:26:42;;;;;;;2.60;1.20;;;26.30;75.50;;;;;;5065235;28;20459;-77
2022/08/06 10:29:18;;;;;;;2.23;1.40;;;26.40;77.20;;;;;;5064825;28;20460;-78
2022/08/06 10:31:53;;;;;;;1.20;1.10;;;26.40;76.90;;;;;;5066352;28;20461;-77
2022/08/06 10:34:27;;;;;;;1.27;1.00;;;26.50;77.00;;;;;;5064635;28;20561;-77
2022/08/06 10:37:02;;;;;;;1.30;1.20;;;26.50;76.10;;;;;;5065709;28;20450;-77
2022/08/06 10:39:43;;;;;;;1.60;1.50;;;26.50;77.20;;;;;;5064620;28;20558;-77
2022/08/06 10:42:33;;;;;;;1.20;1.10;;;26.50;75.70;;;;;;5065377;28;20542;-77
2022/08/06 10:45:04;;;;;;;1.40;1.30;;;26.50;78.90;;;;;;5065390;28;20538;-78
2022/08/06 10:47:42;;;;;;;1.20;1.10;;;26.50;78.20;;;;;;5092730;28;20489;-77
2022/08/06 10:50:30;;;;;;;6.50;1.93;;;26.60;81.20;;;;;;5064814;28;20463;-78
2022/08/06 10:53:10;;;;;;;1.77;1.67;;;26.60;78.60;;;;;;5065819;28;21248;-78
2022/08/06 10:56:02;;;;;;;1.10;1.10;;;26.60;78.80;;;;;;5059994;28;20438;-78
2022/08/06 10:58:33;;;;;;;1.40;1.30;;;26.60;76.30;;;;;;5063003;28;20545;-77
2022/08/06 11:01:07;;;;;;;1.40;1.30;;;26.70;91.40;;;;;;5065448;28;20993;-77
2022/08/06 11:04:15;;;;;;;1.50;1.40;;;26.70;77.50;;;;;;5065011;28;20445;-78
2022/08/06 11:07:01;;;;;;;1.10;1.10;;;26.70;75.60;;;;;;5065110;28;20455;-78
2022/08/06 11:09:52;;;;;;;1.50;1.40;;;26.70;74.20;;;;;;5066015;28;21292;-78
2022/08/06 11:12:42;;;;;;;2.33;1.30;;;26.70;73.60;;;;;;5048176;28;20461;-77
2022/08/06 11:15:19;;;;;;;1.10;1.00;;;26.60;73.80;;;;;;5079721;28;20520;-78
2022/08/06 11:17:54;;;;;;;1.03;1.03;;;26.70;75.10;;;;;;5066135;28;21099;-78
2022/08/06 11:20:41;;;;;;;1.10;1.00;;;26.70;74.60;;;;;;5063952;28;20513;-78
2022/08/06 11:23:26;;;;;;;1.40;1.30;;;26.80;73.40;;;;;;5066560;28;20504;-78
2022/08/06 11:26:33;;;;;;;3.60;1.23;;;26.80;73.20;;;;;;5063961;28;20453;-79
2022/08/06 11:29:06;;;;;;;1.30;1.20;;;26.90;70.40;;;;;;5063936;28;20508;-77
2022/08/06 11:31:40;;;;;;;1.57;1.30;;;26.80;70.40;;;;;;5063576;28;22301;-78
2022/08/06 11:34:43;;;;;;;1.73;1.53;;;26.80;69.00;;;;;;5093012;27;20529;-78
2022/08/06 11:37:44;;;;;;;1.97;1.27;;;26.70;67.20;;;;;;5063304;28;21253;-76
2022/08/06 11:40:57;;;;;;;1.67;1.30;;;26.80;71.00;;;;;;5064633;28;20466;-79
2022/08/06 11:43:48;;;;;;;1.97;1.33;;;26.90;71.90;;;;;;5063056;28;20447;-71
2022/08/06 11:46:33;;;;;;;1.83;1.60;;;27.00;72.30;;;;;;5063229;28;20451;-74
2022/08/06 11:49:19;;;;;;;2.90;1.40;;;27.00;73.70;;;;;;5059059;28;20438;-71
2022/08/06 11:51:51;;;;;;;3.53;1.50;;;26.90;71.60;;;;;;5063452;28;20459;-77
2022/08/06 11:54:33;;;;;;;1.97;1.40;;;27.00;72.50;;;;;;5061649;28;20932;-79
2022/08/06 11:57:25;;;;;;;1.47;1.37;;;27.00;72.50;;;;;;5062191;28;20474;-78
2022/08/06 12:00:23;;;;;;;1.40;1.30;;;27.10;91.80;;;;;;5063602;28;20474;-78
2022/08/06 12:02:56;;;;;;;2.03;1.40;;;27.10;75.90;;;;;;5064210;28;20458;-79
2022/08/06 12:05:47;;;;;;;2.07;1.10;;;27.10;73.10;;;;;;5062145;28;20454;-78
2022/08/06 12:08:29;;;;;;;2.57;1.40;;;27.10;72.40;;;;;;5058837;28;20455;-79
2022/08/06 12:11:37;;;;;;;1.87;1.50;;;27.20;74.40;;;;;;5062242;28;21021;-78
2022/08/06 12:14:26;;;;;;;3.50;1.20;;;27.20;74.90;;;;;;5061068;28;20451;-79
2022/08/06 12:17:10;;;;;;;1.40;1.30;;;27.30;76.20;;;;;;5064353;28;20446;-78
2022/08/06 12:19:44;;;;;;;1.43;1.30;;;27.30;73.30;;;;;;5063610;28;20482;-78
2022/08/06 12:22:32;;;;;;;1.80;1.33;;;27.30;72.50;;;;;;5064351;28;20536;-79
2022/08/06 12:25:05;;;;;;;1.23;1.20;;;27.10;73.80;;;;;;5063716;28;20962;-80
2022/08/06 12:27:40;;;;;;;1.50;1.20;;;26.90;70.30;;;;;;5063603;28;20446;-79
2022/08/06 12:30:21;;;;;;;2.20;1.33;;;27.20;68.60;;;;;;5063678;28;20545;-78
2022/08/06 12:33:06;;;;;;;1.50;1.23;;;27.10;72.80;;;;;;5063787;28;20496;-78
2022/08/06 12:35:50;;;;;;;1.30;1.10;;;27.20;68.20;;;;;;5061190;28;20486;-78
2022/08/06 12:38:19;;;;;;;1.70;1.20;;;27.20;70.20;;;;;;5064321;28;20456;-79
2022/08/06 12:40:57;;;;;;;1.80;1.33;;;27.20;69.30;;;;;;5063358;28;21224;-78
2022/08/06 12:43:26;;;;;;;1.23;1.13;;;27.20;69.50;;;;;;5063829;28;20482;-78
2022/08/06 12:46:15;;;;;;;1.40;1.20;;;27.20;70.90;;;;;;5093100;28;20446;-78
2022/08/06 12:48:49;;;;;;;1.77;1.20;;;27.30;71.70;;;;;;5063599;28;20454;-80
2022/08/06 12:51:18;;;;;;;1.40;1.30;;;27.30;70.90;;;;;;5063268;28;20478;-78
2022/08/06 12:53:54;;;;;;;1.13;1.10;;;27.30;71.10;;;;;;5063807;28;20462;-80
2022/08/06 12:56:29;;;;;;;1.30;1.20;;;27.30;69.30;;;;;;5092670;28;21315;-79
2022/08/06 12:59:02;;;;;;;1.17;1.07;;;27.30;72.50;;;;;;5062161;28;20470;-78
2022/08/06 13:01:33;;;;;;;1.20;1.20;;;27.30;90.80;;;;;;5061163;28;20501;-78
2022/08/06 13:04:22;;;;;;;1.13;1.07;;;27.40;73.70;;;;;;5063648;28;20449;-79
2022/08/06 13:07:03;;;;;;;1.33;1.20;;;27.40;72.70;;;;;;5060342;28;20465;-78
2022/08/06 13:09:42;;;;;;;1.47;1.37;;;27.40;70.80;;;;;;5063055;28;20478;-79
2022/08/06 13:12:32;;;;;;;1.10;1.10;;;27.40;73.40;;;;;;5062094;28;20495;-77
2022/08/06 13:15:20;;;;;;;1.20;1.10;;;27.50;76.30;;;;;;5061343;28;20624;-79
2022/08/06 13:18:04;;;;;;;1.60;1.50;;;27.50;75.80;;;;;;5062541;28;20545;-78
2022/08/06 13:20:53;;;;;;;1.30;1.20;;;27.50;70.40;;;;;;5062381;28;20482;-78
2022/08/06 13:23:31;;;;;;;2.23;1.33;;;27.50;71.10;;;;;;5063270;28;20934;-78
2022/08/06 13:26:13;;;;;;;1.20;1.10;;;27.50;70.40;;;;;;5058779;28;20541;-79
2022/08/06 13:29:20;;;;;;;2.40;1.23;;;27.60;72.50;;;;;;5058532;28;20910;-79
2022/08/06 13:32:10;;;;;;;1.83;1.30;;;27.50;72.10;;;;;;5060048;28;20462;-78
2022/08/06 13:35:00;;;;;;;3.40;1.30;;;27.60;71.50;;;;;;5061557;28;20520;-79
2022/08/06 13:37:58;;;;;;;1.67;1.47;;;27.60;70.50;;;;;;5062568;28;20442;-79
2022/08/06 13:40:46;;;;;;;1.73;1.20;;;27.50;71.70;;;;;;5016577;28;20499;-78
2022/08/06 13:43:35;;;;;;;2.43;1.17;;;27.50;69.10;;;;;;5064241;28;20443;-78
2022/08/06 13:46:08;;;;;;;1.20;1.10;;;27.50;66.20;;;;;;5066552;28;20482;-79
2022/08/06 13:48:43;;;;;;;1.33;1.20;;;27.50;67.70;;;;;;5067346;28;20442;-79
2022/08/06 13:51:14;;;;;;;1.10;1.10;;;27.50;69.10;;;;;;5067433;28;20481;-79
2022/08/06 13:53:55;;;;;;;1.30;1.13;;;27.50;71.30;;;;;;5064342;28;20537;-79
2022/08/06 13:56:25;;;;;;;1.77;1.33;;;27.50;69.50;;;;;;5064124;28;20577;-77